createdAt,value
2023-03-12T00:00:10.669Z,5.17
2023-03-12T00:02:38.107Z,5.45
2023-03-12T00:05:05.990Z,5.63
2023-03-12T00:07:33.264Z,5.07
2023-03-12T00:10:00.449Z,6.87
2023-03-12T00:12:27.851Z,4.53
2023-03-12T00:14:55.035Z,6.20
2023-03-12T00:17:22.281Z,5.30
2023-03-12T00:19:53.987Z,4.80
2023-03-12T00:22:25.767Z,5.03
2023-03-12T00:24:58.141Z,5.30
2023-03-12T00:27:26.391Z,4.90
2023-03-12T00:29:53.922Z,4.90
2023-03-12T00:32:21.470Z,4.77
2023-03-12T00:34:55.133Z,5.70
2023-03-12T00:37:23.022Z,4.87
2023-03-12T00:39:50.657Z,4.93
2023-03-12T00:42:18.364Z,5.10
2023-03-12T00:44:46.088Z,4.90
2023-03-12T00:47:14.260Z,4.67
2023-03-12T00:49:41.781Z,5.43
2023-03-12T00:52:09.310Z,5.13
2023-03-12T00:54:37.000Z,4.40
2023-03-12T00:57:04.615Z,4.53
2023-03-12T00:59:32.841Z,5.07
2023-03-12T01:02:00.048Z,4.73
2023-03-12T01:04:27.509Z,4.17
2023-03-12T01:06:55.890Z,4.67
2023-03-12T01:09:23.400Z,4.60
2023-03-12T01:11:52.056Z,4.77
2023-03-12T01:14:19.358Z,5.03
2023-03-12T01:16:47.545Z,4.67
2023-03-12T01:19:14.902Z,4.67
2023-03-12T01:21:42.199Z,4.10
2023-03-12T01:24:10.019Z,4.57
2023-03-12T01:26:37.347Z,3.60
2023-03-12T01:29:04.738Z,4.77
2023-03-12T01:31:32.218Z,4.50
2023-03-12T01:33:59.792Z,4.50
2023-03-12T01:36:29.818Z,4.13
2023-03-12T01:38:59.753Z,4.33
2023-03-12T01:41:32.116Z,4.60
2023-03-12T01:44:03.686Z,4.57
2023-03-12T01:46:38.405Z,4.20
2023-03-12T01:49:13.418Z,4.70
2023-03-12T01:52:03.539Z,4.33
2023-03-12T01:54:44.989Z,4.73
2023-03-12T01:57:17.282Z,5.37
2023-03-12T01:59:56.085Z,5.40
2023-03-12T02:02:27.233Z,5.40
2023-03-12T02:05:08.704Z,4.80
2023-03-12T02:07:36.154Z,5.60
2023-03-12T02:10:05.604Z,4.50
2023-03-12T02:12:33.055Z,4.73
2023-03-12T02:15:00.356Z,5.17
2023-03-12T02:17:27.776Z,5.13
2023-03-12T02:20:17.518Z,5.50
2023-03-12T02:22:52.867Z,5.57
2023-03-12T02:25:44.173Z,4.70
2023-03-12T02:28:15.950Z,4.20
2023-03-12T02:30:49.899Z,5.07
2023-03-12T02:33:17.511Z,5.97
2023-03-12T02:35:47.671Z,4.73
2023-03-12T02:38:34.834Z,5.15
2023-03-12T02:41:19.279Z,5.63
2023-03-12T02:43:58.494Z,5.10
2023-03-12T02:46:26.859Z,5.07
2023-03-12T02:48:55.310Z,5.13
2023-03-12T02:51:22.598Z,5.60
2023-03-12T02:53:54.793Z,4.90
2023-03-12T02:56:27.898Z,5.50
2023-03-12T02:58:55.170Z,4.67
2023-03-12T03:01:24.223Z,5.37
2023-03-12T03:03:51.651Z,5.17
2023-03-12T03:06:18.910Z,4.73
2023-03-12T03:08:46.733Z,5.97
2023-03-12T03:11:14.523Z,5.67
2023-03-12T03:13:41.702Z,4.77
2023-03-12T03:16:09.845Z,4.57
2023-03-12T03:18:37.172Z,3.43
2023-03-12T03:21:07.834Z,4.30
2023-03-12T03:23:37.228Z,4.00
2023-03-12T03:26:05.414Z,3.20
2023-03-12T03:28:32.662Z,3.83
2023-03-12T03:31:02.101Z,3.30
2023-03-12T03:33:36.114Z,4.00
2023-03-12T03:36:06.167Z,3.70
2023-03-12T03:38:37.045Z,3.90
2023-03-12T03:41:05.022Z,3.83
2023-03-12T03:43:35.197Z,3.45
2023-03-12T03:46:05.876Z,3.37
2023-03-12T03:48:36.939Z,3.77
2023-03-12T03:51:07.556Z,4.17
2023-03-12T03:53:36.609Z,3.80
2023-03-12T03:56:14.350Z,4.20
2023-03-12T03:58:46.476Z,3.27
2023-03-12T04:01:16.080Z,3.57
2023-03-12T04:03:45.060Z,3.50
2023-03-12T04:06:13.191Z,3.57
2023-03-12T04:08:41.048Z,3.33
2023-03-12T04:11:18.259Z,4.00
2023-03-12T04:13:46.812Z,3.47
2023-03-12T04:16:16.901Z,3.72
2023-03-12T04:18:45.393Z,4.97
2023-03-12T04:21:14.609Z,6.13
2023-03-12T04:23:43.030Z,6.53
2023-03-12T04:26:12.287Z,5.70
2023-03-12T04:28:40.014Z,6.20
2023-03-12T04:31:10.478Z,5.13
2023-03-12T04:33:46.253Z,5.93
2023-03-12T04:36:16.234Z,5.47
2023-03-12T04:38:45.740Z,5.43
2023-03-12T04:41:17.293Z,5.47
2023-03-12T04:43:49.370Z,5.33
2023-03-12T04:46:18.658Z,6.03
2023-03-12T04:48:45.890Z,5.97
2023-03-12T04:51:14.373Z,5.87
2023-03-12T04:53:41.941Z,7.07
2023-03-12T04:56:10.940Z,6.10
2023-03-12T04:58:39.337Z,5.67
2023-03-12T05:01:07.135Z,6.17
2023-03-12T05:03:35.212Z,5.23
2023-03-12T05:06:02.632Z,7.43
2023-03-12T05:08:30.262Z,8.67
2023-03-12T05:10:57.604Z,6.47
2023-03-12T05:13:26.410Z,5.90
2023-03-12T05:15:56.921Z,6.25
2023-03-12T05:18:26.553Z,5.50
2023-03-12T05:23:44.555Z,5.03
2023-03-12T05:26:27.458Z,4.50
2023-03-12T05:29:02.341Z,5.43
2023-03-12T05:31:33.192Z,4.03
2023-03-12T05:34:03.062Z,4.07
2023-03-12T05:36:31.472Z,3.72
2023-03-12T05:39:00.025Z,4.30
2023-03-12T05:41:30.783Z,4.70
2023-03-12T05:44:04.305Z,6.53
2023-03-12T05:46:31.926Z,4.63
2023-03-12T05:49:00.371Z,4.70
2023-03-12T05:51:28.061Z,4.80
2023-03-12T05:53:55.334Z,3.97
2023-03-12T05:56:22.714Z,3.87
2023-03-12T05:58:50.141Z,3.93
2023-03-12T06:01:28.680Z,5.60
2023-03-12T06:03:58.217Z,4.97
2023-03-12T06:06:26.451Z,4.23
2023-03-12T06:08:54.555Z,4.13
2023-03-12T06:11:21.864Z,3.73
2023-03-12T06:13:49.084Z,3.50
2023-03-12T06:16:23.208Z,3.30
2023-03-12T06:18:54.879Z,3.10
2023-03-12T06:21:27.114Z,3.57
2023-03-12T06:23:55.012Z,3.83
2023-03-12T06:26:28.386Z,3.10
2023-03-12T06:28:55.825Z,3.22
2023-03-12T06:31:24.394Z,3.55
2023-03-12T06:33:53.807Z,3.13
2023-03-12T06:36:21.504Z,3.28
2023-03-12T06:38:48.906Z,3.08
2023-03-12T06:41:19.277Z,3.45
2023-03-12T06:43:47.595Z,3.28
2023-03-12T06:46:18.589Z,2.10
2023-03-12T06:48:46.651Z,2.33
2023-03-12T06:51:17.257Z,2.60
2023-03-12T06:53:45.983Z,2.92
2023-03-12T06:56:13.983Z,3.55
2023-03-12T06:58:42.035Z,3.33
2023-03-12T07:01:09.796Z,3.30
2023-03-12T07:03:37.486Z,4.65
2023-03-12T07:06:05.711Z,3.45
2023-03-12T07:08:33.267Z,7.55
2023-03-12T07:11:01.960Z,17.27
2023-03-12T07:13:30.429Z,9.73
2023-03-12T07:15:58.163Z,13.73
2023-03-12T07:18:25.682Z,50.42
2023-03-12T07:20:54.252Z,61.55
2023-03-12T07:23:22.322Z,67.50
2023-03-12T07:25:50.477Z,28.40
2023-03-12T07:28:19.241Z,51.20
2023-03-12T07:30:50.688Z,18.48
2023-03-12T07:33:21.846Z,8.85
2023-03-12T07:35:51.659Z,10.30
2023-03-12T07:38:19.516Z,18.73
2023-03-12T07:40:55.961Z,7.72
2023-03-12T07:43:25.220Z,11.43
2023-03-12T07:45:55.160Z,17.58
2023-03-12T07:48:22.470Z,6.45
2023-03-12T07:50:49.756Z,13.90
2023-03-12T07:53:17.564Z,11.38
2023-03-12T07:55:46.883Z,16.48
2023-03-12T07:58:16.613Z,13.50
2023-03-12T08:00:45.044Z,4.97
2023-03-12T08:03:13.793Z,4.07
2023-03-12T08:05:41.705Z,12.98
2023-03-12T08:08:09.803Z,7.97
2023-03-12T08:10:37.595Z,3.63
2023-03-12T08:13:05.003Z,2.78
2023-03-12T08:15:33.562Z,4.80
2023-03-12T08:18:01.587Z,9.40
2023-03-12T08:20:29.052Z,2.65
2023-03-12T08:22:56.264Z,2.90
2023-03-12T08:25:24.911Z,3.50
2023-03-12T08:27:52.453Z,5.10
2023-03-12T08:30:19.822Z,4.50
2023-03-12T08:32:47.286Z,4.57
2023-03-12T08:35:14.578Z,6.75
2023-03-12T08:37:41.960Z,2.75
2023-03-12T08:40:15.880Z,3.10
2023-03-12T08:42:45.013Z,3.33
2023-03-12T08:45:13.599Z,3.20
2023-03-12T08:47:42.900Z,4.88
2023-03-12T08:50:13.028Z,4.05
2023-03-12T08:52:40.434Z,2.83
2023-03-12T08:55:08.363Z,3.00
2023-03-12T08:57:35.808Z,2.53
2023-03-12T09:00:06.074Z,3.20
2023-03-12T09:02:33.662Z,3.08
2023-03-12T09:05:00.879Z,2.53
2023-03-12T09:07:28.404Z,2.97
2023-03-12T09:09:56.017Z,3.28
2023-03-12T09:12:24.274Z,2.85
2023-03-12T09:15:03.863Z,3.13
2023-03-12T09:17:32.372Z,2.40
2023-03-12T09:20:00.260Z,2.63
2023-03-12T09:22:30.665Z,1.98
2023-03-12T09:24:58.011Z,2.38
2023-03-12T09:27:25.340Z,3.08
2023-03-12T09:30:00.723Z,2.60
2023-03-12T09:32:29.583Z,4.90
2023-03-12T09:34:57.134Z,2.42
2023-03-12T09:37:24.679Z,2.15
2023-03-12T09:39:53.211Z,2.00
2023-03-12T09:42:47.579Z,2.20
2023-03-12T09:45:26.600Z,2.05
2023-03-12T09:47:58.587Z,2.05
2023-03-12T09:50:40.734Z,2.38
2023-03-12T09:53:21.332Z,1.45
2023-03-12T09:55:52.636Z,1.23
2023-03-12T09:58:33.684Z,1.75
2023-03-12T10:01:24.080Z,1.92
2023-03-12T10:06:56.155Z,1.30
2023-03-12T10:09:32.671Z,1.40
2023-03-12T10:12:35.718Z,1.60
2023-03-12T10:15:47.472Z,1.77
2023-03-12T10:18:21.293Z,2.08
2023-03-12T10:21:12.149Z,2.88
2023-03-12T10:23:47.518Z,2.60
2023-03-12T10:26:44.101Z,8.65
2023-03-12T10:29:19.513Z,2.20
2023-03-12T10:31:58.725Z,1.73
2023-03-12T10:34:49.152Z,1.67
2023-03-12T10:37:26.898Z,1.08
2023-03-12T10:40:01.011Z,1.50
2023-03-12T10:42:30.641Z,2.78
2023-03-12T10:45:11.055Z,2.03
2023-03-12T10:47:39.128Z,0.90
2023-03-12T10:50:20.325Z,1.08
2023-03-12T10:52:50.737Z,6.40
2023-03-12T10:55:24.708Z,1.35
2023-03-12T10:57:53.175Z,12.40
2023-03-12T11:00:27.271Z,1.90
2023-03-12T11:03:05.514Z,15.20
2023-03-12T11:05:37.246Z,11.60
2023-03-12T11:08:20.541Z,0.85
2023-03-12T11:10:48.318Z,0.95
2023-03-12T11:13:30.291Z,2.78
2023-03-12T11:16:17.655Z,2.10
2023-03-12T11:19:01.386Z,2.88
2023-03-12T11:21:31.657Z,2.40
2023-03-12T11:23:58.739Z,4.03
2023-03-12T11:26:35.171Z,2.75
2023-03-12T11:29:40.107Z,1.70
2023-03-12T11:32:34.645Z,1.02
2023-03-12T11:35:02.105Z,2.58
2023-03-12T11:37:59.923Z,1.65
2023-03-12T11:40:59.940Z,2.83
2023-03-12T11:43:58.592Z,1.10
2023-03-12T11:46:28.476Z,2.33
2023-03-12T11:49:09.026Z,2.80
2023-03-12T11:51:51.246Z,1.80
2023-03-12T11:54:58.054Z,1.77
2023-03-12T11:57:49.898Z,2.30
2023-03-12T12:00:21.173Z,2.05
2023-03-12T12:03:17.817Z,2.67
2023-03-12T12:06:37.017Z,3.25
2023-03-12T12:09:40.609Z,4.93
2023-03-12T12:12:31.467Z,3.17
2023-03-12T12:15:39.064Z,3.95
2023-03-12T12:18:42.851Z,3.10
2023-03-12T12:21:51.462Z,3.20
2023-03-12T12:24:34.702Z,2.15
2023-03-12T12:27:18.922Z,2.35
2023-03-12T12:30:04.679Z,2.50
2023-03-12T12:32:55.615Z,2.53
2023-03-12T12:35:26.487Z,2.88
2023-03-12T12:38:38.104Z,3.00
2023-03-12T12:41:40.672Z,2.70
2023-03-12T12:44:18.092Z,2.75
2023-03-12T12:47:03.842Z,2.50
2023-03-12T12:49:49.016Z,2.67
2023-03-12T12:52:20.243Z,2.50
2023-03-12T12:55:06.769Z,2.20
2023-03-12T12:57:48.485Z,2.50
2023-03-12T13:00:42.288Z,2.33
2023-03-12T13:03:25.034Z,1.80
2023-03-12T13:06:03.611Z,1.85
2023-03-12T13:08:34.408Z,2.00
2023-03-12T13:11:20.323Z,1.75
2023-03-12T13:14:03.651Z,1.90
2023-03-12T13:16:39.358Z,2.45
2023-03-12T13:19:15.341Z,2.80
2023-03-12T13:22:15.559Z,2.08
2023-03-12T13:25:41.806Z,1.85
2023-03-12T13:29:11.421Z,2.03
2023-03-12T13:34:18.136Z,1.20
2023-03-12T13:36:52.477Z,1.63
2023-03-12T13:39:35.292Z,1.30
2023-03-12T13:42:34.790Z,1.15
2023-03-12T13:45:25.203Z,1.35
2023-03-12T13:47:58.403Z,1.10
2023-03-12T13:50:26.796Z,1.20
2023-03-12T13:53:14.997Z,1.60
2023-03-12T13:55:43.855Z,1.20
2023-03-12T13:58:23.616Z,1.33
2023-03-12T14:01:04.736Z,1.80
2023-03-12T14:03:40.688Z,2.28
2023-03-12T14:06:17.834Z,1.48
2023-03-12T14:09:08.366Z,1.70
2023-03-12T14:12:14.370Z,1.55
2023-03-12T14:15:03.134Z,2.47
2023-03-12T14:17:33.373Z,2.05
2023-03-12T14:20:07.514Z,2.08
2023-03-12T14:22:38.296Z,1.38
